createdAt,value
2024-03-06T00:00:41.897Z,13.96
2024-03-06T00:03:10.778Z,14.09
2024-03-06T00:05:38.396Z,14.07
2024-03-06T00:08:06.615Z,13.93
2024-03-06T00:10:34.112Z,13.83
2024-03-06T00:13:01.869Z,13.63
2024-03-06T00:15:29.656Z,14.03
2024-03-06T00:17:57.167Z,14.33
2024-03-06T00:20:26.159Z,14.42
2024-03-06T00:22:53.749Z,14.38
2024-03-06T00:25:21.272Z,14.38
2024-03-06T00:27:48.806Z,14.28
2024-03-06T00:30:16.286Z,14.27
2024-03-06T00:32:43.800Z,14.33
2024-03-06T00:35:13.286Z,14.31
2024-03-06T00:37:42.209Z,14.00
2024-03-06T00:40:10.782Z,14.12
2024-03-06T00:42:41.580Z,14.22
2024-03-06T00:45:09.903Z,13.99
2024-03-06T00:47:37.491Z,13.95
2024-03-06T00:50:06.316Z,13.87
2024-03-06T00:52:34.619Z,13.85
2024-03-06T00:55:03.514Z,13.95
2024-03-06T00:57:30.992Z,13.74
2024-03-06T00:59:58.505Z,14.02
2024-03-06T01:02:26.542Z,14.01
2024-03-06T01:04:54.092Z,13.96
2024-03-06T01:07:21.587Z,13.90
2024-03-06T01:09:49.103Z,13.92
2024-03-06T01:12:19.466Z,14.01
2024-03-06T01:14:47.013Z,14.17
2024-03-06T01:17:14.628Z,13.96
2024-03-06T01:19:44.419Z,14.02
2024-03-06T01:22:12.179Z,14.06
2024-03-06T01:24:39.661Z,13.88
2024-03-06T01:27:07.262Z,13.87
2024-03-06T01:29:36.183Z,13.95
2024-03-06T01:32:04.111Z,13.84
2024-03-06T01:34:31.648Z,13.93
2024-03-06T01:36:59.150Z,13.75
2024-03-06T01:39:26.610Z,13.86
2024-03-06T01:41:54.578Z,13.57
2024-03-06T01:44:22.302Z,13.57
2024-03-06T01:46:51.151Z,13.62
2024-03-06T01:49:28.342Z,13.83
2024-03-06T01:52:01.665Z,13.79
2024-03-06T01:54:29.563Z,13.96
2024-03-06T01:56:56.948Z,13.84
2024-03-06T01:59:35.681Z,13.83
2024-03-06T02:02:06.373Z,13.80
2024-03-06T02:04:34.091Z,13.73
2024-03-06T02:07:02.394Z,13.86
2024-03-06T02:09:29.926Z,13.77
2024-03-06T02:11:57.464Z,13.68
2024-03-06T02:14:25.414Z,13.66
2024-03-06T02:16:52.938Z,13.88
2024-03-06T02:19:21.731Z,13.81
2024-03-06T02:21:50.591Z,13.74
2024-03-06T02:24:18.099Z,13.76
2024-03-06T02:26:45.588Z,13.99
2024-03-06T02:29:13.140Z,14.00
2024-03-06T02:31:41.099Z,13.74
2024-03-06T02:34:08.690Z,13.72
2024-03-06T02:36:37.314Z,13.74
2024-03-06T02:39:09.887Z,13.54
2024-03-06T02:41:38.058Z,13.63
2024-03-06T02:44:06.020Z,13.64
2024-03-06T02:46:33.844Z,13.73
2024-03-06T02:49:01.402Z,13.84
2024-03-06T02:51:28.846Z,13.72
2024-03-06T02:53:56.360Z,13.60
2024-03-06T02:56:25.135Z,13.64
2024-03-06T02:58:52.594Z,13.52
2024-03-06T03:01:20.072Z,13.74
2024-03-06T03:03:48.245Z,13.25
2024-03-06T03:06:16.020Z,13.30
2024-03-06T03:08:43.456Z,13.32
2024-03-06T03:11:11.286Z,13.36
2024-03-06T03:13:40.685Z,13.09
2024-03-06T03:16:08.272Z,13.48
2024-03-06T03:18:35.909Z,13.29
2024-03-06T03:21:03.469Z,13.29
2024-03-06T03:23:30.952Z,13.38
2024-03-06T03:25:58.483Z,13.58
2024-03-06T03:28:25.915Z,13.27
2024-03-06T03:30:54.682Z,13.48
2024-03-06T03:33:22.112Z,13.27
2024-03-06T03:35:49.564Z,13.19
2024-03-06T03:38:17.727Z,13.23
2024-03-06T03:40:45.434Z,13.43
2024-03-06T03:43:12.902Z,13.52
2024-03-06T03:45:40.350Z,13.78
2024-03-06T03:48:09.556Z,13.41
2024-03-06T03:50:37.109Z,13.57
2024-03-06T03:53:05.203Z,13.35
2024-03-06T03:55:33.065Z,13.45
2024-03-06T03:58:00.921Z,13.32
2024-03-06T04:00:28.406Z,13.35
2024-03-06T04:02:55.845Z,13.64
2024-03-06T04:05:25.469Z,13.57
2024-03-06T04:07:53.045Z,13.86
2024-03-06T04:10:20.570Z,13.75
2024-03-06T04:12:48.058Z,13.85
2024-03-06T04:15:15.613Z,13.94
2024-03-06T04:17:43.111Z,14.00
2024-03-06T04:20:13.305Z,14.13
2024-03-06T04:22:42.463Z,13.89
2024-03-06T04:25:10.790Z,13.85
2024-03-06T04:27:38.361Z,13.78
2024-03-06T04:30:06.875Z,13.75
2024-03-06T04:32:34.414Z,13.87
2024-03-06T04:35:02.115Z,13.54
2024-03-06T04:37:30.744Z,13.61
2024-03-06T04:39:59.684Z,13.65
2024-03-06T04:42:27.191Z,13.61
2024-03-06T04:44:54.680Z,13.41
2024-03-06T04:47:22.198Z,13.43
2024-03-06T04:49:51.272Z,13.53
2024-03-06T04:52:18.835Z,13.52
2024-03-06T04:54:46.311Z,13.24
2024-03-06T04:57:15.075Z,12.96
2024-03-06T04:59:42.518Z,13.20
2024-03-06T05:02:10.243Z,13.12
2024-03-06T05:59:46.751Z,11.77
2024-03-06T06:02:17.346Z,12.73
2024-03-06T06:04:51.966Z,11.33
2024-03-06T06:07:27.813Z,11.76
2024-03-06T06:09:55.362Z,11.56
2024-03-06T06:12:22.855Z,12.06
2024-03-06T06:14:50.343Z,13.03
2024-03-06T06:17:20.403Z,11.80
2024-03-06T06:19:48.459Z,11.44
2024-03-06T06:22:15.908Z,10.93
2024-03-06T06:24:46.057Z,11.23
2024-03-06T06:27:15.041Z,11.47
2024-03-06T06:29:42.815Z,11.15
2024-03-06T06:32:10.485Z,10.60
2024-03-06T06:34:39.343Z,11.06
2024-03-06T06:37:06.892Z,11.71
2024-03-06T06:39:35.625Z,11.33
2024-03-06T06:42:04.308Z,11.82
2024-03-06T06:44:31.807Z,12.61
2024-03-06T06:46:59.662Z,11.58
2024-03-06T06:49:27.143Z,12.64
2024-03-06T06:51:55.982Z,13.20
2024-03-06T06:54:23.566Z,12.56
2024-03-06T06:56:51.777Z,13.08
2024-03-06T06:59:23.269Z,12.44
2024-03-06T07:01:52.126Z,12.35
2024-03-06T07:04:21.379Z,13.10
2024-03-06T07:06:48.958Z,12.60
2024-03-06T07:09:18.295Z,12.11
2024-03-06T07:11:45.935Z,11.27
2024-03-06T07:14:14.988Z,12.23
2024-03-06T07:16:44.438Z,12.00
2024-03-06T07:19:11.903Z,12.23
2024-03-06T07:21:39.586Z,12.39
2024-03-06T07:24:07.564Z,12.45
2024-03-06T07:26:37.022Z,11.58
2024-03-06T07:29:05.014Z,11.43
2024-03-06T07:31:33.199Z,11.71
2024-03-06T07:34:00.746Z,12.77
2024-03-06T07:36:28.172Z,12.74
2024-03-06T07:38:55.985Z,13.13
2024-03-06T07:41:23.452Z,13.83
2024-03-06T07:43:52.249Z,14.22
2024-03-06T07:46:19.685Z,13.12
2024-03-06T07:48:47.264Z,14.34
2024-03-06T07:51:14.726Z,14.11
2024-03-06T07:53:42.252Z,12.77
2024-03-06T07:56:13.355Z,13.06
2024-03-06T07:58:41.114Z,13.25
2024-03-06T08:01:09.960Z,12.92
2024-03-06T08:03:37.379Z,13.66
2024-03-06T08:06:05.315Z,11.73
2024-03-06T08:08:32.846Z,11.13
2024-03-06T08:11:00.469Z,12.24
2024-03-06T08:13:28.570Z,12.03
2024-03-06T08:15:56.024Z,12.55
2024-03-06T08:18:25.139Z,12.40
2024-03-06T08:20:54.225Z,13.27
2024-03-06T08:23:21.999Z,13.45
2024-03-06T08:25:49.454Z,13.67
2024-03-06T08:28:16.988Z,14.37
2024-03-06T08:30:45.166Z,14.52
2024-03-06T08:33:13.243Z,15.42
2024-03-06T08:35:42.957Z,14.67
2024-03-06T08:38:10.416Z,15.04
2024-03-06T08:40:39.735Z,14.03
2024-03-06T08:43:09.404Z,15.61
2024-03-06T08:45:36.843Z,12.99
2024-03-06T08:48:04.791Z,14.39
2024-03-06T08:50:32.786Z,14.52
2024-03-06T08:53:03.178Z,14.26
2024-03-06T08:55:30.685Z,14.80
2024-03-06T08:57:58.961Z,15.21
2024-03-06T09:00:27.872Z,15.17
2024-03-06T09:02:55.390Z,15.09
2024-03-06T09:05:23.175Z,15.45
2024-03-06T09:07:50.839Z,15.36
2024-03-06T09:10:20.463Z,14.91
2024-03-06T09:12:48.100Z,13.58
2024-03-06T09:15:17.554Z,13.40
2024-03-06T09:17:46.159Z,13.29
2024-03-06T09:20:14.806Z,14.29
2024-03-06T09:22:43.814Z,14.74
2024-03-06T09:25:13.513Z,15.81
2024-03-06T09:27:43.130Z,16.62
2024-03-06T09:30:11.787Z,15.33
2024-03-06T09:32:40.073Z,13.77
2024-03-06T09:35:08.861Z,14.12
2024-03-06T09:37:36.470Z,15.87
2024-03-06T09:40:04.840Z,14.28
2024-03-06T09:42:32.337Z,15.41
2024-03-06T09:45:02.709Z,14.77
2024-03-06T09:47:34.405Z,14.81
2024-03-06T09:50:04.381Z,14.98
2024-03-06T09:52:32.742Z,14.55
2024-03-06T09:55:01.592Z,14.37
2024-03-06T09:57:29.078Z,14.84
2024-03-06T09:59:56.648Z,15.06
2024-03-06T10:02:37.670Z,14.91
2024-03-06T10:05:06.639Z,14.56
2024-03-06T10:07:34.172Z,13.79
2024-03-06T10:10:01.688Z,13.14
2024-03-06T10:12:30.952Z,14.23
2024-03-06T10:14:58.821Z,14.90
2024-03-06T10:17:29.200Z,14.65
2024-03-06T10:19:59.693Z,15.37
2024-03-06T10:22:27.274Z,15.62
2024-03-06T10:24:58.018Z,15.92
2024-03-06T10:27:25.529Z,15.71
2024-03-06T10:30:05.131Z,15.22
2024-03-06T10:32:35.108Z,15.94
2024-03-06T10:35:02.683Z,14.59
2024-03-06T10:37:31.081Z,14.77
2024-03-06T10:40:06.960Z,15.00
2024-03-06T10:42:35.791Z,15.72
2024-03-06T10:45:04.137Z,14.34
2024-03-06T10:47:32.326Z,13.52
2024-03-06T10:50:05.994Z,14.16
2024-03-06T10:52:36.157Z,14.73
2024-03-06T10:55:04.401Z,14.40
2024-03-06T10:57:32.281Z,13.82
2024-03-06T11:00:03.393Z,13.88
2024-03-06T11:02:34.105Z,14.65
2024-03-06T11:05:06.351Z,15.35
2024-03-06T11:07:34.115Z,15.46
2024-03-06T11:10:02.113Z,13.88
2024-03-06T11:12:38.981Z,15.05
2024-03-06T11:15:16.763Z,14.92
2024-03-06T11:17:44.908Z,15.84
2024-03-06T11:20:19.865Z,14.18
2024-03-06T11:23:12.717Z,15.55
2024-03-06T11:26:02.181Z,16.00
2024-03-06T11:28:31.604Z,15.34
2024-03-06T11:31:00.831Z,15.36
2024-03-06T11:33:38.833Z,14.59
2024-03-06T11:36:22.471Z,14.43
2024-03-06T11:38:54.096Z,14.65
2024-03-06T11:41:26.358Z,16.08
2024-03-06T11:43:55.118Z,16.70
2024-03-06T11:46:23.799Z,17.03
2024-03-06T11:48:56.225Z,17.83
2024-03-06T11:51:25.654Z,18.40
2024-03-06T11:53:53.605Z,15.25
2024-03-06T11:56:21.915Z,16.43
2024-03-06T11:58:50.569Z,17.62
2024-03-06T12:01:19.723Z,16.01
2024-03-06T12:03:49.309Z,16.86
2024-03-06T12:06:18.375Z,15.59
2024-03-06T12:08:47.665Z,16.51
2024-03-06T12:11:15.506Z,16.03
2024-03-06T12:13:43.928Z,15.34
2024-03-06T12:16:12.940Z,14.92
2024-03-06T12:18:40.434Z,15.61
2024-03-06T12:21:08.021Z,16.21
2024-03-06T12:23:35.684Z,15.53
2024-03-06T12:26:10.198Z,16.61
2024-03-06T12:28:38.050Z,16.80
2024-03-06T12:31:06.273Z,17.37
2024-03-06T12:33:35.127Z,16.27
2024-03-06T12:36:04.829Z,16.93
2024-03-06T12:38:32.549Z,16.45
2024-03-06T12:41:01.447Z,15.68
2024-03-06T12:43:30.727Z,17.33
2024-03-06T12:45:59.228Z,16.33
2024-03-06T12:48:29.596Z,16.47
2024-03-06T12:50:57.503Z,15.86
2024-03-06T12:53:25.004Z,15.76
2024-03-06T12:55:52.551Z,16.06
2024-03-06T12:58:20.007Z,17.19
2024-03-06T13:00:48.936Z,16.75
2024-03-06T13:03:16.391Z,16.95
2024-03-06T13:05:44.063Z,15.72
2024-03-06T13:08:15.208Z,15.74
2024-03-06T13:10:42.791Z,15.59
2024-03-06T13:13:10.447Z,16.59
2024-03-06T13:15:38.496Z,17.07
2024-03-06T13:18:07.977Z,16.70
2024-03-06T13:20:36.516Z,16.20
2024-03-06T13:23:04.795Z,16.59
2024-03-06T13:25:32.702Z,15.60
2024-03-06T13:28:00.987Z,15.92
2024-03-06T13:30:28.442Z,15.87
2024-03-06T13:32:56.437Z,15.96
2024-03-06T13:35:25.371Z,15.99
2024-03-06T13:37:52.819Z,15.83
2024-03-06T13:40:20.442Z,15.95
2024-03-06T13:42:48.180Z,16.84
2024-03-06T13:45:15.796Z,17.26
2024-03-06T13:47:44.984Z,16.01
2024-03-06T13:50:13.862Z,15.74
2024-03-06T13:52:43.501Z,16.81
2024-03-06T13:55:11.604Z,17.30
2024-03-06T13:57:39.534Z,15.59
2024-03-06T14:00:13.292Z,15.59
2024-03-06T14:02:41.472Z,15.58
2024-03-06T14:05:09.417Z,15.97
2024-03-06T14:07:36.914Z,14.66
2024-03-06T14:10:06.859Z,15.79
2024-03-06T14:12:34.394Z,15.58
2024-03-06T14:15:01.847Z,15.93
2024-03-06T14:17:29.353Z,15.72
2024-03-06T14:19:56.809Z,16.16
2024-03-06T14:22:24.234Z,16.89
2024-03-06T14:24:51.672Z,16.48
2024-03-06T14:27:20.429Z,15.24
2024-03-06T14:29:47.938Z,14.90
2024-03-06T14:32:16.316Z,14.97
2024-03-06T14:34:44.592Z,14.47
2024-03-06T14:37:12.310Z,15.89
2024-03-06T14:39:39.854Z,15.93
2024-03-06T14:42:07.818Z,16.13
2024-03-06T14:44:36.640Z,16.49
2024-03-06T14:47:04.185Z,16.74
2024-03-06T14:49:31.663Z,15.84
2024-03-06T14:51:59.102Z,15.02
2024-03-06T14:54:27.213Z,14.60
2024-03-06T14:56:55.120Z,15.85
2024-03-06T14:59:23.468Z,16.00
2024-03-06T15:01:52.514Z,16.06
2024-03-06T15:04:21.082Z,16.20
2024-03-06T15:06:48.626Z,16.06
2024-03-06T15:09:17.054Z,16.23
2024-03-06T15:11:44.662Z,15.29
2024-03-06T15:14:12.200Z,15.84
2024-03-06T15:16:41.017Z,15.33
2024-03-06T15:19:09.951Z,15.65
2024-03-06T15:21:37.408Z,16.10
2024-03-06T15:24:06.217Z,16.58
2024-03-06T15:26:33.890Z,17.19
2024-03-06T15:29:01.663Z,15.78
2024-03-06T15:31:29.124Z,16.49
2024-03-06T15:33:56.545Z,15.54
2024-03-06T15:36:25.324Z,16.44
2024-03-06T15:38:56.737Z,15.98
2024-03-06T15:41:24.405Z,16.33
2024-03-06T15:43:51.876Z,15.80
2024-03-06T15:46:19.416Z,15.44
2024-03-06T15:48:47.023Z,14.40
2024-03-06T15:51:14.651Z,15.28
2024-03-06T15:53:43.581Z,16.21
2024-03-06T15:56:12.197Z,16.01
2024-03-06T15:58:39.729Z,16.30
2024-03-06T16:01:07.510Z,17.03
2024-03-06T16:03:34.987Z,16.02
2024-03-06T16:06:11.376Z,16.53
2024-03-06T16:08:44.594Z,15.71
2024-03-06T16:11:12.307Z,17.02
2024-03-06T16:13:40.045Z,15.83
2024-03-06T16:16:09.437Z,15.84
2024-03-06T16:18:37.371Z,16.18
2024-03-06T16:21:05.229Z,16.08
2024-03-06T16:23:32.942Z,15.90
2024-03-06T16:26:01.773Z,15.56
2024-03-06T16:28:29.183Z,15.98
2024-03-06T16:30:57.737Z,15.94
2024-03-06T16:33:25.298Z,16.58
2024-03-06T16:35:52.881Z,16.26
2024-03-06T16:38:20.942Z,15.44
2024-03-06T16:40:48.567Z,15.78
2024-03-06T16:43:17.389Z,15.79
2024-03-06T16:45:45.051Z,15.99
2024-03-06T16:48:12.748Z,16.49
2024-03-06T16:50:40.377Z,16.38
2024-03-06T16:53:08.649Z,16.33
2024-03-06T16:55:36.514Z,16.28
2024-03-06T16:58:04.254Z,15.73
2024-03-06T17:00:33.373Z,15.71
2024-03-06T17:03:01.420Z,16.43
2024-03-06T17:05:28.937Z,16.61
2024-03-06T17:07:56.443Z,15.89
2024-03-06T17:10:24.512Z,14.94
2024-03-06T17:12:52.055Z,14.99
2024-03-06T17:15:20.154Z,15.11
2024-03-06T17:17:49.015Z,15.42
2024-03-06T17:20:16.772Z,16.30
2024-03-06T17:22:44.406Z,16.09
2024-03-06T17:25:11.865Z,15.81
2024-03-06T17:27:39.477Z,16.91
2024-03-06T17:30:09.538Z,15.90
2024-03-06T17:32:37.044Z,15.36
2024-03-06T17:35:06.848Z,15.33
2024-03-06T17:37:34.317Z,16.12
2024-03-06T17:40:02.205Z,15.96
2024-03-06T17:42:29.870Z,16.10
2024-03-06T17:44:57.360Z,16.54
2024-03-06T17:47:25.102Z,16.39
2024-03-06T17:49:52.872Z,16.14
2024-03-06T17:52:21.714Z,15.86
2024-03-06T17:54:49.150Z,15.70
2024-03-06T17:57:16.583Z,15.80
2024-03-06T17:59:44.145Z,15.29
2024-03-06T18:02:12.271Z,15.96
2024-03-06T18:04:39.873Z,16.29
2024-03-06T18:07:07.336Z,15.86
2024-03-06T18:09:36.099Z,15.79
2024-03-06T18:12:03.668Z,17.06
2024-03-06T18:14:31.293Z,16.32
2024-03-06T18:16:59.176Z,16.31
2024-03-06T18:19:27.033Z,15.72
2024-03-06T18:21:54.641Z,15.12
2024-03-06T18:24:22.112Z,14.74
2024-03-06T18:26:50.962Z,14.88
2024-03-06T18:29:18.732Z,15.12
2024-03-06T18:31:46.188Z,15.83
2024-03-06T18:34:14.321Z,16.26
2024-03-06T18:36:41.998Z,16.26
2024-03-06T18:39:10.179Z,16.31
2024-03-06T18:41:37.713Z,16.30
2024-03-06T18:44:06.645Z,16.87
2024-03-06T18:46:34.923Z,16.76
2024-03-06T18:49:02.419Z,15.92
2024-03-06T18:51:29.878Z,16.09
2024-03-06T18:53:57.349Z,16.40
2024-03-06T18:56:24.855Z,15.08
2024-03-06T18:58:52.362Z,15.96
2024-03-06T19:01:21.656Z,15.57
2024-03-06T19:03:49.319Z,15.88
2024-03-06T19:06:18.124Z,16.12
2024-03-06T19:08:47.682Z,15.71
2024-03-06T19:11:15.317Z,15.92
2024-03-06T19:13:43.078Z,16.15
2024-03-06T19:16:11.372Z,16.54
2024-03-06T19:18:40.174Z,16.85
2024-03-06T19:21:07.677Z,16.04
2024-03-06T19:23:35.167Z,16.12
2024-03-06T19:26:02.644Z,15.58
2024-03-06T19:28:30.117Z,15.56
2024-03-06T19:31:00.962Z,15.68
2024-03-06T19:33:28.587Z,15.91
2024-03-06T19:35:57.538Z,15.60
2024-03-06T19:38:25.919Z,15.13
2024-03-06T19:40:52.469Z,15.99
2024-03-06T19:43:19.967Z,16.65
2024-03-06T19:45:47.761Z,16.41
2024-03-06T19:48:18.045Z,16.00
2024-03-06T19:50:47.322Z,15.43
2024-03-06T19:53:16.790Z,16.43
2024-03-06T19:55:44.355Z,16.73
2024-03-06T19:58:11.801Z,16.09
2024-03-06T20:00:39.278Z,16.28
2024-03-06T20:03:06.824Z,16.53
2024-03-06T20:05:34.340Z,15.46
2024-03-06T20:08:02.081Z,15.51
2024-03-06T20:10:31.368Z,15.90
2024-03-06T20:13:02.703Z,15.74
2024-03-06T20:15:30.480Z,15.82
2024-03-06T20:17:58.163Z,15.83
2024-03-06T20:20:25.734Z,16.91
2024-03-06T20:22:57.461Z,16.51
2024-03-06T20:25:25.107Z,18.18
2024-03-06T20:27:54.258Z,14.86
2024-03-06T20:30:22.381Z,15.59
2024-03-06T20:32:50.005Z,15.16
2024-03-06T20:35:21.557Z,15.55
2024-03-06T20:37:50.058Z,15.71
2024-03-06T20:40:17.868Z,14.46
2024-03-06T20:42:45.813Z,13.98
2024-03-06T20:45:14.762Z,14.96
2024-03-06T20:47:42.981Z,15.39
2024-03-06T20:50:11.542Z,14.94
2024-03-06T20:52:39.524Z,14.37
2024-03-06T20:55:07.572Z,14.03
2024-03-06T20:57:35.083Z,15.06
2024-03-06T21:00:02.759Z,13.69
2024-03-06T21:02:31.538Z,14.72
2024-03-06T21:04:59.369Z,13.67
2024-03-06T21:07:26.800Z,14.85
2024-03-06T21:09:54.230Z,13.70
2024-03-06T21:12:22.295Z,14.84
2024-03-06T21:14:53.418Z,13.81
2024-03-06T21:17:20.994Z,13.98
2024-03-06T21:19:49.810Z,14.52
2024-03-06T21:22:21.797Z,14.45
2024-03-06T21:24:49.448Z,13.99
2024-03-06T21:27:16.949Z,14.12
2024-03-06T21:29:44.695Z,14.53
2024-03-06T21:32:12.278Z,15.71
2024-03-06T21:34:43.135Z,15.13
2024-03-06T21:37:11.932Z,14.78
2024-03-06T21:39:39.392Z,15.08
2024-03-06T21:42:07.232Z,15.08
2024-03-06T21:44:34.718Z,15.14
2024-03-06T21:47:02.219Z,15.24
2024-03-06T21:49:35.312Z,14.74
2024-03-06T21:52:02.824Z,15.38
2024-03-06T21:54:31.864Z,16.40
2024-03-06T21:56:59.413Z,15.82
2024-03-06T21:59:27.393Z,16.05
2024-03-06T22:01:54.947Z,16.50
2024-03-06T22:04:22.434Z,15.88
2024-03-06T22:06:50.350Z,16.16
2024-03-06T22:09:18.057Z,15.78
2024-03-06T22:11:47.354Z,16.96
2024-03-06T22:14:15.114Z,16.34
2024-03-06T22:16:42.709Z,15.89
2024-03-06T22:19:10.204Z,14.69
2024-03-06T22:21:37.825Z,14.81
2024-03-06T22:24:06.106Z,14.89
2024-03-06T22:26:33.609Z,16.14
2024-03-06T22:29:04.518Z,16.65
2024-03-06T22:31:32.035Z,16.25
2024-03-06T22:33:59.549Z,16.49
2024-03-06T22:36:27.474Z,15.33
2024-03-06T22:38:55.162Z,15.04
2024-03-06T22:41:23.839Z,16.34
2024-03-06T22:43:51.556Z,16.10
2024-03-06T22:46:20.542Z,16.03
2024-03-06T22:48:48.040Z,15.92
2024-03-06T22:51:15.477Z,15.97
2024-03-06T22:53:43.774Z,16.88
2024-03-06T22:56:11.328Z,16.73
2024-03-06T22:58:38.801Z,16.85
2024-03-06T23:01:07.540Z,16.23
2024-03-06T23:03:36.988Z,16.08
2024-03-06T23:06:04.886Z,16.79
2024-03-06T23:08:32.458Z,15.95
2024-03-06T23:11:00.792Z,15.96
2024-03-06T23:13:28.403Z,15.65
2024-03-06T23:15:55.833Z,15.02
2024-03-06T23:18:26.002Z,14.06
2024-03-06T23:20:55.084Z,14.00
2024-03-06T23:23:22.720Z,14.64
2024-03-06T23:25:50.576Z,14.12
2024-03-06T23:28:18.096Z,15.56
2024-03-06T23:30:45.792Z,15.70
2024-03-06T23:33:13.573Z,14.23
2024-03-06T23:35:41.075Z,14.29
2024-03-06T23:38:10.011Z,15.14
2024-03-06T23:40:37.545Z,14.49
2024-03-06T23:43:05.374Z,14.69
2024-03-06T23:45:32.864Z,15.21
2024-03-06T23:48:01.463Z,14.33
2024-03-06T23:50:29.191Z,14.52
2024-03-06T23:52:56.713Z,15.48
2024-03-06T23:55:24.764Z,15.58
2024-03-06T23:57:52.512Z,14.55
